Time;durP1;ratioP1;P1;durP2;ratioP2;P2;SDS_P1;SDS_P2;PMS_P1;PMS_P2;Temp;Humidity;BMP_temperature;BMP_pressure;BME280_temperature;BME280_humidity;BME280_pressure;Samples;Min_cycle;Max_cycle;Signal;HPM_P1;HPM_P2
2021/10/22 00:02:17;;;;;;;4.85;1.60;;;11.70;64.50;;;11.05;50.27;94466.72;5031967;28;20624;-82
2021/10/22 00:04:45;;;;;;;1.63;1.40;;;11.60;64.40;;;10.95;50.30;94471.59;5016385;28;20222;-81
2021/10/22 00:07:12;;;;;;;2.78;1.30;;;11.60;64.40;;;10.99;50.67;94478.03;5049209;28;20220;-81
2021/10/22 00:09:39;;;;;;;2.55;1.55;;;11.60;64.70;;;10.99;50.79;94469.38;5054967;28;20230;-81
2021/10/22 00:12:07;;;;;;;1.42;1.27;;;11.50;64.80;;;11.01;50.75;94467.31;5035853;28;20735;-81
2021/10/22 00:14:34;;;;;;;4.85;1.52;;;11.50;64.80;;;11.02;50.73;94475.03;5052275;28;20208;-81
2021/10/22 00:17:01;;;;;;;1.88;1.35;;;11.50;65.00;;;11.09;50.86;94488.09;5065097;28;20611;-81
2021/10/22 00:19:32;;;;;;;1.45;1.35;;;11.50;65.00;;;11.14;51.01;94484.88;5050830;28;20200;-80
2021/10/22 00:22:00;;;;;;;2.97;1.40;;;11.60;65.10;;;11.24;50.94;94490.50;5031419;28;20298;-82
2021/10/22 00:24:27;;;;;;;1.80;1.60;;;11.60;65.40;;;11.29;51.51;94500.38;5048824;28;20188;-81
2021/10/22 00:26:54;;;;;;;1.35;1.25;;;11.60;65.60;;;11.34;50.85;94511.88;5035522;28;20243;-81
2021/10/22 00:29:21;;;;;;;1.75;1.10;;;11.60;65.40;;;11.36;51.32;94509.03;5051693;28;20253;-82
2021/10/22 00:31:48;;;;;;;2.33;1.23;;;11.70;65.70;;;11.35;51.58;94517.94;5053479;28;20218;-81
2021/10/22 00:34:16;;;;;;;2.05;1.30;;;11.70;65.80;;;11.27;51.63;94516.34;5052299;28;20550;-82
2021/10/22 00:36:43;;;;;;;2.08;1.05;;;11.70;65.90;;;11.22;52.19;94503.03;5051236;28;20224;-81
2021/10/22 00:39:11;;;;;;;1.30;1.20;;;11.80;66.00;;;11.14;52.21;94506.66;5034252;28;20688;-81
2021/10/22 00:41:41;;;;;;;1.33;1.20;;;11.70;66.00;;;11.03;53.54;94509.94;5035467;28;20216;-79
2021/10/22 00:44:08;;;;;;;1.70;1.27;;;11.70;66.40;;;10.91;53.36;94512.34;5034246;28;20269;-82
2021/10/22 00:46:38;;;;;;;1.75;1.20;;;11.60;66.30;;;10.85;54.83;94508.75;5035082;28;20261;-80
2021/10/22 00:49:10;;;;;;;2.15;1.35;;;11.60;66.90;;;10.80;53.24;94511.19;5035790;28;20200;-81
2021/10/22 00:51:38;;;;;;;2.58;1.40;;;11.40;66.60;;;10.74;52.94;94511.97;5051869;28;20637;-81
2021/10/22 00:54:10;;;;;;;3.47;1.70;;;11.40;66.30;;;10.66;53.42;94522.69;5030251;28;20199;-81
2021/10/22 00:56:38;;;;;;;2.67;1.40;;;11.30;66.50;;;10.61;54.51;94506.72;5015492;28;20822;-81
2021/10/22 00:59:06;;;;;;;2.15;1.30;;;11.30;66.90;;;10.54;53.98;94501.50;5059886;28;20544;-82
2021/10/22 01:01:42;;;;;;;4.13;1.20;;;11.30;67.10;;;10.56;54.08;94528.31;5047827;28;20278;-81
2021/10/22 01:04:10;;;;;;;2.42;1.10;;;11.20;67.20;;;10.59;54.44;94514.00;5031642;28;20186;-81
2021/10/22 01:06:41;;;;;;;2.00;1.27;;;11.20;67.60;;;10.62;54.16;94513.59;5036717;28;20211;-81
2021/10/22 01:09:13;;;;;;;1.90;1.10;;;11.10;67.30;;;10.63;54.06;94513.41;5034239;28;20647;-82
2021/10/22 01:11:40;;;;;;;1.25;1.00;;;11.10;67.10;;;10.65;54.96;94514.00;5035013;28;20219;-81
2021/10/22 01:14:08;;;;;;;1.45;1.10;;;11.10;67.60;;;10.72;54.50;94511.38;5034785;28;20650;-81
2021/10/22 01:16:38;;;;;;;2.10;1.00;;;11.20;67.60;;;10.78;53.74;94515.81;5034191;28;20311;-80
2021/10/22 01:19:12;;;;;;;0.95;0.95;;;11.20;67.40;;;10.78;54.03;94507.13;5048812;28;20199;-81
2021/10/22 01:21:41;;;;;;;2.50;1.08;;;11.20;67.40;;;10.78;54.38;94507.94;5046327;28;20251;-82
2021/10/22 01:24:10;;;;;;;1.83;1.20;;;11.20;67.40;;;10.77;54.18;94513.41;5031979;28;20258;-82
2021/10/22 01:26:37;;;;;;;1.10;1.05;;;11.20;67.20;;;10.75;53.56;94513.59;5050928;28;20219;-81
2021/10/22 01:29:04;;;;;;;1.42;1.00;;;11.20;66.90;;;10.71;53.72;94510.56;5046248;28;20581;-81
2021/10/22 01:31:32;;;;;;;1.85;1.05;;;11.30;67.10;;;10.63;54.06;94523.91;5031126;28;20259;-80
2021/10/22 01:34:00;;;;;;;0.93;0.93;;;11.30;67.10;;;10.62;54.25;94530.16;5027819;28;20662;-81
2021/10/22 01:36:27;;;;;;;1.92;1.00;;;11.30;67.10;;;10.61;54.02;94533.78;5066933;28;20228;-80
2021/10/22 01:38:55;;;;;;;1.38;0.95;;;11.20;67.10;;;10.57;53.80;94535.97;5033389;28;20192;-81
2021/10/22 01:41:22;;;;;;;1.67;1.00;;;11.10;67.10;;;10.57;53.85;94527.31;5049954;28;20230;-82
2021/10/22 01:43:50;;;;;;;1.23;1.10;;;11.10;67.00;;;10.50;54.47;94524.69;5015104;28;20212;-81
2021/10/22 01:46:18;;;;;;;1.02;0.93;;;11.10;67.30;;;10.48;54.27;94528.50;5019682;28;20764;-81
2021/10/22 01:48:47;;;;;;;1.55;1.10;;;11.10;67.30;;;10.43;54.55;94534.34;5031443;28;20590;-82
2021/10/22 01:51:14;;;;;;;1.42;0.90;;;11.00;67.30;;;10.40;54.61;94534.78;5048488;28;20307;-81
2021/10/22 01:53:41;;;;;;;1.55;1.02;;;11.00;67.40;;;10.37;54.76;94546.44;5022202;28;20194;-81
2021/10/22 01:56:10;;;;;;;1.35;1.10;;;11.00;67.50;;;10.29;54.72;94537.94;5038335;28;20227;-81
2021/10/22 01:58:37;;;;;;;1.30;1.20;;;10.90;67.40;;;10.29;54.45;94556.28;5055155;28;20227;-81
2021/10/22 02:01:06;;;;;;;1.60;1.10;;;10.90;67.50;;;10.26;54.84;94557.47;5037717;28;20303;-80
2021/10/22 02:03:33;;;;;;;1.52;1.10;;;10.90;67.70;;;10.23;54.83;94558.69;5042752;28;20288;-81
2021/10/22 02:06:01;;;;;;;2.25;1.10;;;10.80;67.60;;;10.20;55.30;94543.34;5034351;28;20698;-81
2021/10/22 02:08:28;;;;;;;0.95;0.90;;;10.90;68.00;;;10.16;55.14;94541.34;5019086;28;20235;-80
2021/10/22 02:10:57;;;;;;;1.52;1.20;;;10.80;68.00;;;10.16;55.93;94549.22;5054420;28;20283;-81
2021/10/22 02:13:24;;;;;;;1.23;1.00;;;10.80;68.20;;;10.14;55.22;94543.34;5038142;28;20192;-81
2021/10/22 02:15:51;;;;;;;2.33;1.10;;;10.70;68.00;;;10.09;55.46;94539.53;5037070;28;20751;-80
2021/10/22 02:18:21;;;;;;;1.73;1.10;;;10.70;68.10;;;10.10;55.35;94548.97;5053736;28;20672;-80
2021/10/22 02:20:49;;;;;;;1.60;1.20;;;10.70;68.20;;;10.07;55.59;94549.38;5065679;28;20279;-81
2021/10/22 02:23:17;;;;;;;3.72;1.30;;;10.80;68.40;;;10.03;55.73;94558.66;5053139;28;20220;-82
2021/10/22 02:25:45;;;;;;;3.25;1.27;;;10.60;68.10;;;10.02;56.54;94566.69;5018138;28;20224;-81
2021/10/22 02:28:13;;;;;;;1.45;1.15;;;10.60;68.40;;;10.01;56.15;94565.06;5035544;28;20192;-82
2021/10/22 02:30:41;;;;;;;1.85;1.35;;;10.60;68.50;;;9.99;56.33;94577.56;5037569;28;20279;-80
2021/10/22 02:33:11;;;;;;;1.20;1.00;;;10.60;68.80;;;9.97;55.89;94574.34;5037458;28;20219;-82
2021/10/22 02:35:39;;;;;;;3.15;1.17;;;10.60;68.70;;;9.96;56.89;94581.41;5033963;28;20236;-82
2021/10/22 02:38:07;;;;;;;1.60;1.20;;;10.60;69.00;;;9.94;56.29;94586.81;5063157;28;20260;-82
2021/10/22 02:40:34;;;;;;;1.75;1.20;;;10.50;68.80;;;9.91;56.70;94592.47;5017006;28;20224;-79
2021/10/22 02:43:01;;;;;;;3.33;1.30;;;10.50;68.90;;;9.89;56.67;94580.56;5025828;28;20212;-81
2021/10/22 02:45:29;;;;;;;1.58;1.20;;;10.50;69.10;;;9.85;56.53;94580.16;5034461;28;20215;-80
2021/10/22 02:47:56;;;;;;;4.65;1.48;;;10.50;69.00;;;9.88;57.01;94578.94;5049600;28;20216;-80
2021/10/22 02:50:25;;;;;;;2.15;1.13;;;10.60;69.40;;;9.85;56.79;94574.06;5020795;28;20192;-80
2021/10/22 02:52:53;;;;;;;2.03;1.15;;;10.40;69.20;;;9.89;56.06;94588.41;5036839;28;20627;-80
2021/10/22 02:55:21;;;;;;;2.15;1.17;;;10.50;69.00;;;9.88;57.16;94581.56;5052191;28;20204;-81
2021/10/22 02:57:49;;;;;;;1.80;1.30;;;10.50;69.50;;;9.88;56.48;94584.97;5001435;28;20228;-81
2021/10/22 03:00:17;;;;;;;4.47;1.30;;;10.40;69.10;;;9.86;56.68;94592.25;5027362;28;20196;-81
2021/10/22 03:02:46;;;;;;;1.70;1.15;;;10.40;69.30;;;9.79;56.71;94583.53;5036792;28;20223;-80
2021/10/22 03:05:14;;;;;;;1.75;1.20;;;10.40;69.10;;;9.82;57.28;94596.22;5052692;28;20277;-80
2021/10/22 03:07:43;;;;;;;2.20;1.23;;;10.40;69.30;;;9.73;56.19;94586.94;5050129;28;20221;-80
2021/10/22 03:10:10;;;;;;;2.00;1.20;;;10.40;69.20;;;9.73;57.10;94597.41;5035386;28;20204;-81
2021/10/22 03:12:38;;;;;;;2.97;1.30;;;10.40;69.20;;;9.68;57.19;94605.03;5060389;28;20294;-79
2021/10/22 03:15:08;;;;;;;2.20;1.35;;;10.40;69.40;;;9.69;56.61;94614.50;5002028;28;20276;-81
2021/10/22 03:17:35;;;;;;;2.30;1.15;;;10.30;69.40;;;9.60;57.40;94611.25;5050991;28;20221;-79
2021/10/22 03:20:03;;;;;;;1.38;1.10;;;10.30;69.50;;;9.64;56.43;94619.53;5074077;28;20340;-81
2021/10/22 03:22:31;;;;;;;2.35;1.10;;;10.30;69.30;;;9.58;56.44;94619.28;5058543;28;20228;-80
2021/10/22 03:24:58;;;;;;;2.72;1.20;;;10.30;69.30;;;9.54;56.62;94615.44;5057191;28;20185;-80
2021/10/22 03:27:26;;;;;;;1.90;1.13;;;10.20;70.20;;;9.53;56.62;94616.44;5050540;28;20216;-80
2021/10/22 03:29:54;;;;;;;1.35;1.05;;;10.20;69.30;;;9.51;56.59;94622.84;5058820;28;20243;-80
2021/10/22 03:32:22;;;;;;;1.23;1.13;;;10.10;69.20;;;9.47;56.38;94613.78;5051044;28;20641;-80
2021/10/22 03:34:49;;;;;;;2.15;1.10;;;10.10;69.20;;;9.42;56.25;94627.44;5050929;28;20204;-81
2021/10/22 03:37:17;;;;;;;1.50;1.20;;;10.10;69.10;;;9.37;55.99;94637.69;5057004;28;20589;-80
2021/10/22 03:39:44;;;;;;;1.30;1.17;;;10.10;69.10;;;9.31;56.58;94638.44;5050152;28;20254;-80
2021/10/22 03:42:12;;;;;;;3.40;1.25;;;10.00;69.20;;;9.27;56.17;94643.25;5016736;28;20574;-80
2021/10/22 03:44:39;;;;;;;3.47;1.20;;;10.00;69.20;;;9.24;56.33;94641.00;5055545;28;20231;-81
2021/10/22 03:47:07;;;;;;;2.20;1.23;;;9.90;70.50;;;9.22;56.39;94643.00;5015951;28;20549;-80
2021/10/22 03:49:34;;;;;;;1.42;1.10;;;9.90;70.60;;;9.23;56.51;94652.50;5017950;28;20208;-80
2021/10/22 03:52:02;;;;;;;1.52;1.40;;;9.90;70.70;;;9.23;56.38;94645.44;5029294;28;20221;-81
2021/10/22 03:54:29;;;;;;;1.67;1.10;;;9.80;71.70;;;9.25;56.32;94645.22;5033222;28;20666;-81
2021/10/22 03:56:57;;;;;;;1.98;1.20;;;9.90;70.80;;;9.25;56.24;94646.06;5016422;28;20705;-81
2021/10/22 03:59:24;;;;;;;2.15;1.27;;;9.80;70.80;;;9.26;56.12;94652.09;5015066;28;20196;-80
2021/10/22 04:01:51;;;;;;;1.50;1.35;;;9.90;71.00;;;9.35;56.65;94658.00;5031421;28;20702;-81
2021/10/22 04:04:18;;;;;;;1.65;1.40;;;9.90;71.10;;;9.42;56.39;94666.69;5016279;28;20288;-82
2021/10/22 04:06:46;;;;;;;2.13;1.48;;;9.90;71.20;;;9.49;56.59;94666.75;5034240;28;20211;-81
2021/10/22 04:09:15;;;;;;;2.17;1.50;;;9.90;71.20;;;9.57;56.49;94674.44;5033157;28;20200;-81
2021/10/22 04:11:42;;;;;;;2.08;1.50;;;10.00;70.10;;;9.63;56.34;94667.66;5035875;28;20208;-81
2021/10/22 04:14:12;;;;;;;2.47;1.50;;;10.00;70.10;;;9.73;56.18;94676.78;5052405;28;20245;-81
2021/10/22 04:16:39;;;;;;;1.95;1.20;;;10.10;70.20;;;9.83;56.35;94689.53;5035857;28;20747;-82
2021/10/22 04:19:06;;;;;;;2.60;1.50;;;10.10;70.10;;;9.88;56.27;94687.13;5032431;28;20197;-82
2021/10/22 04:21:33;;;;;;;1.85;1.17;;;10.20;70.20;;;9.93;56.84;94689.19;5047704;28;20212;-81
2021/10/22 04:24:01;;;;;;;1.30;1.20;;;10.30;70.40;;;10.01;56.55;94685.59;5052755;28;20192;-81
2021/10/22 04:26:28;;;;;;;1.98;1.40;;;10.30;70.30;;;10.03;56.90;94689.66;5035663;28;20219;-81
2021/10/22 04:28:55;;;;;;;2.50;1.40;;;10.40;70.30;;;10.05;56.32;94687.63;5034849;28;20249;-81
2021/10/22 04:31:22;;;;;;;1.65;1.45;;;10.40;70.20;;;10.14;56.37;94700.59;5019145;28;20306;-81
2021/10/22 04:33:49;;;;;;;2.10;1.30;;;10.50;70.30;;;10.15;56.83;94689.91;5035521;28;20198;-82
2021/10/22 04:36:17;;;;;;;2.10;1.20;;;10.50;70.30;;;10.22;56.71;94693.38;5052462;28;20215;-80
2021/10/22 04:41:31;;;;;;;1.77;1.20;;;10.60;70.30;;;10.27;56.26;94695.41;5051707;28;20519;-79
2021/10/22 04:43:58;;;;;;;1.27;1.17;;;10.70;70.20;;;10.28;56.19;94689.16;5035009;28;20237;-82
2021/10/22 04:46:25;;;;;;;1.35;1.20;;;10.60;70.20;;;10.33;56.39;94694.63;5035401;28;20609;-81
2021/10/22 04:48:52;;;;;;;2.72;1.10;;;10.70;70.20;;;10.34;56.52;94687.56;5034926;28;20219;-81
2021/10/22 04:51:19;;;;;;;1.00;1.00;;;10.70;70.20;;;10.35;56.39;94686.56;5068446;28;20244;-81
2021/10/22 04:53:46;;;;;;;1.58;1.00;;;10.70;70.10;;;10.36;56.50;94688.19;5034091;28;20284;-82
2021/10/22 04:56:14;;;;;;;1.02;0.90;;;10.80;70.10;;;10.33;55.94;94676.28;5068360;28;20251;-80
2021/10/22 04:58:45;;;;;;;0.90;0.90;;;10.80;69.90;;;10.31;55.93;94687.97;5031653;28;20211;-81
2021/10/22 05:01:14;;;;;;;1.05;1.00;;;10.80;69.70;;;10.25;55.96;94692.16;5047850;28;20234;-80
2021/10/22 05:03:41;;;;;;;1.20;1.10;;;10.70;69.50;;;10.18;56.20;94688.69;5046734;28;20650;-81
2021/10/22 05:06:10;;;;;;;1.65;1.02;;;10.80;69.50;;;10.10;56.88;94694.91;5034751;28;20337;-79
2021/10/22 05:08:38;;;;;;;1.13;1.10;;;10.70;69.50;;;10.07;56.29;94698.75;5047155;28;20270;-79
2021/10/22 05:11:05;;;;;;;1.30;1.20;;;10.60;69.50;;;10.06;56.08;94710.22;5032322;28;20554;-80
2021/10/22 05:13:32;;;;;;;1.25;1.15;;;10.60;69.60;;;10.07;56.14;94703.16;5064605;28;20193;-80
2021/10/22 05:16:00;;;;;;;1.35;1.05;;;10.60;69.60;;;10.04;55.95;94698.31;5064242;28;20324;-80
2021/10/22 05:18:29;;;;;;;1.58;1.20;;;10.60;69.70;;;10.05;56.11;94697.31;5046330;28;20757;-81
2021/10/22 05:20:56;;;;;;;1.35;1.00;;;10.60;69.70;;;10.10;56.02;94708.81;5051255;28;20246;-80
2021/10/22 05:23:24;;;;;;;1.83;1.40;;;10.60;69.70;;;10.09;56.23;94717.72;5018230;28;20567;-80
2021/10/22 05:25:51;;;;;;;1.73;1.30;;;10.60;69.80;;;10.10;56.46;94716.69;5049908;28;20261;-80
2021/10/22 05:28:18;;;;;;;1.30;1.10;;;10.60;69.80;;;10.15;56.41;94723.19;5034604;28;20198;-80
2021/10/22 05:30:47;;;;;;;1.42;1.10;;;10.60;69.80;;;10.14;56.37;94719.72;5030897;28;20200;-80
2021/10/22 05:33:14;;;;;;;1.88;1.05;;;10.60;69.90;;;10.15;56.56;94731.84;5047620;28;20675;-81
2021/10/22 05:35:41;;;;;;;1.75;1.27;;;10.60;69.80;;;10.17;56.42;94739.53;5030713;28;20212;-79
2021/10/22 05:38:08;;;;;;;2.85;1.52;;;10.60;69.80;;;10.17;56.97;94744.75;5065402;28;20213;-80
2021/10/22 05:40:36;;;;;;;1.45;1.35;;;10.60;69.80;;;10.16;56.15;94736.06;5016986;28;20733;-81
2021/10/22 05:43:04;;;;;;;1.00;0.90;;;10.60;69.70;;;10.18;56.41;94739.31;5034441;28;20576;-80
2021/10/22 05:45:31;;;;;;;1.40;1.10;;;10.70;69.80;;;10.17;56.26;94745.56;5051254;28;20286;-80
2021/10/22 05:47:58;;;;;;;1.35;1.25;;;10.70;69.80;;;10.19;56.16;94737.50;5034096;28;20308;-79
2021/10/22 05:50:26;;;;;;;1.30;1.20;;;10.60;69.70;;;10.16;55.70;94745.75;5038788;28;20196;-78
2021/10/22 05:52:53;;;;;;;1.05;1.00;;;10.60;69.60;;;10.17;55.74;94742.16;5064230;28;20240;-78
2021/10/22 05:55:21;;;;;;;1.52;1.13;;;10.60;69.50;;;10.15;55.77;94739.69;5050728;28;20292;-78
2021/10/22 05:57:48;;;;;;;1.30;1.05;;;10.60;69.50;;;10.11;56.05;94746.34;5034112;28;20219;-78
2021/10/22 06:00:15;;;;;;;1.02;0.93;;;10.60;69.50;;;10.07;55.71;94727.56;5033776;28;20281;-78
2021/10/22 06:02:43;;;;;;;0.95;0.95;;;10.60;69.50;;;10.08;55.76;94750.16;5050640;28;20697;-79
2021/10/22 06:05:10;;;;;;;1.33;1.10;;;10.60;69.60;;;10.13;55.77;94762.69;5050542;28;20259;-79
2021/10/22 06:07:38;;;;;;;2.13;1.08;;;10.60;69.60;;;10.16;55.98;94770.16;5047985;28;20224;-78
2021/10/22 06:10:06;;;;;;;2.90;1.30;;;10.60;69.70;;;10.18;55.82;94767.31;5048443;28;20200;-78
2021/10/22 06:12:34;;;;;;;1.30;1.20;;;10.60;69.70;;;10.19;55.84;94759.28;5067302;28;20330;-78
2021/10/22 06:15:03;;;;;;;7.00;4.03;;;10.60;69.70;;;10.22;56.04;94763.34;5046985;28;20331;-79
2021/10/22 06:17:31;;;;;;;6.95;4.25;;;10.80;69.80;;;10.24;55.87;94766.56;4998449;28;20239;-78
2021/10/22 06:20:08;;;;;;;5.30;3.00;;;10.60;69.60;;;10.27;55.76;94783.72;5028900;28;20203;-79
2021/10/22 06:23:53;;;;;;;3.08;2.47;;;10.70;69.70;;;10.29;55.66;94774.66;5034871;28;20299;-79
2021/10/22 06:25:43;;;;;;;1.60;1.50;;;10.70;69.60;;;10.32;55.64;94783.97;5050835;28;20191;-79
2021/10/22 06:28:11;;;;;;;2.45;1.60;;;10.70;69.70;;;10.35;55.73;94776.53;5033987;28;20599;-79
2021/10/22 06:30:39;;;;;;;3.88;2.35;;;10.70;69.70;;;10.38;55.58;94785.84;5050282;28;20203;-79
2021/10/22 06:33:06;;;;;;;2.45;2.10;;;10.70;69.60;;;10.46;55.44;94788.31;5034081;28;20712;-79
2021/10/22 06:35:34;;;;;;;4.13;2.85;;;10.80;69.70;;;10.52;55.39;94791.94;5034173;28;20666;-79
2021/10/22 06:38:02;;;;;;;2.58;2.03;;;10.80;69.70;;;10.54;55.31;94796.00;5036787;28;20311;-79
2021/10/22 06:40:29;;;;;;;1.92;1.73;;;10.80;69.70;;;10.62;55.38;94795.03;5054171;28;20658;-79
2021/10/22 06:42:56;;;;;;;4.10;2.50;;;10.90;69.80;;;10.68;55.51;94803.91;5037829;28;20273;-79
2021/10/22 06:45:23;;;;;;;3.03;1.90;;;10.90;69.70;;;10.71;55.16;94795.69;5054082;28;20198;-79
2021/10/22 06:47:51;;;;;;;2.95;1.67;;;10.90;69.70;;;10.78;55.28;94791.25;5037807;28;20215;-79
2021/10/22 06:50:18;;;;;;;1.63;1.40;;;11.00;69.60;;;10.81;55.04;94795.31;5037364;28;20192;-79
2021/10/22 06:52:46;;;;;;;2.03;1.70;;;11.10;70.50;;;10.81;55.13;94797.94;5037485;28;20693;-79
2021/10/22 06:55:15;;;;;;;1.92;1.30;;;11.10;69.50;;;10.79;55.05;94797.31;5054313;28;20266;-79
2021/10/22 06:57:43;;;;;;;1.95;1.40;;;11.20;69.40;;;10.79;55.08;94803.38;5054904;28;20306;-79
2021/10/22 07:00:12;;;;;;;1.73;1.50;;;11.20;69.30;;;10.71;55.05;94804.34;5054273;28;20218;-79
2021/10/22 07:02:50;;;;;;;2.25;1.23;;;11.20;69.20;;;10.70;55.01;94801.91;5037434;28;20212;-79
2021/10/22 07:05:34;;;;;;;1.30;1.20;;;11.20;69.20;;;10.66;55.25;94804.13;5037254;28;20275;-78
2021/10/22 07:08:05;;;;;;;1.80;1.27;;;11.20;69.10;;;10.66;55.03;94819.84;5039253;28;20231;-79
2021/10/22 07:10:33;;;;;;;1.40;1.30;;;11.10;69.20;;;10.66;55.25;94812.00;5037243;28;20196;-79
2021/10/22 07:13:03;;;;;;;1.35;1.25;;;11.10;69.10;;;10.68;55.09;94817.03;5036974;28;20230;-79
2021/10/22 07:15:30;;;;;;;1.27;1.17;;;11.10;69.20;;;10.67;55.11;94813.63;5037154;28;20208;-79
2021/10/22 07:18:01;;;;;;;1.45;1.27;;;11.20;69.40;;;10.79;55.29;94810.44;5020536;28;20273;-79
2021/10/22 07:20:31;;;;;;;4.38;1.42;;;11.20;69.40;;;10.81;55.24;94811.84;5053535;28;20192;-79
2021/10/22 07:23:04;;;;;;;1.52;1.42;;;11.20;69.50;;;10.86;55.13;94821.75;5036815;28;20258;-79
2021/10/22 07:25:37;;;;;;;1.35;1.20;;;11.20;69.40;;;10.88;55.26;94825.00;5070799;28;20188;-79
2021/10/22 07:28:12;;;;;;;1.30;1.20;;;11.20;69.40;;;10.93;55.01;94830.47;5070752;28;20662;-79
2021/10/22 07:30:45;;;;;;;1.95;1.42;;;11.20;69.50;;;10.96;55.25;94839.78;5054608;28;20770;-79
2021/10/22 07:33:14;;;;;;;1.05;1.02;;;11.30;69.40;;;10.97;55.07;94849.25;5053495;28;20188;-79
2021/10/22 07:35:42;;;;;;;1.60;1.17;;;11.30;69.30;;;10.94;55.06;94831.31;5036791;28;20662;-79
2021/10/22 07:38:11;;;;;;;1.63;1.52;;;11.30;69.30;;;10.97;54.75;94839.56;5020366;28;20247;-79
2021/10/22 07:40:44;;;;;;;1.00;1.00;;;11.30;69.30;;;11.04;55.10;94835.16;5036666;28;20195;-79
2021/10/22 07:43:17;;;;;;;1.65;1.15;;;11.40;69.40;;;11.10;54.96;94835.41;5036743;28;20211;-79
2021/10/22 07:45:45;;;;;;;1.65;1.23;;;11.50;69.50;;;11.20;55.04;94844.53;5036764;28;20500;-79
2021/10/22 07:48:13;;;;;;;2.20;1.40;;;11.40;69.50;;;11.30;55.09;94851.19;5018513;28;20199;-79
2021/10/22 07:50:41;;;;;;;2.30;1.33;;;11.40;69.50;;;11.34;54.79;94847.97;5086128;28;20203;-79
2021/10/22 07:53:08;;;;;;;2.03;1.33;;;11.50;69.40;;;11.40;54.70;94861.31;5035859;28;20245;-79
2021/10/22 07:55:36;;;;;;;2.08;1.20;;;11.60;69.30;;;11.43;54.53;94867.00;5036210;28;20238;-79
2021/10/22 07:58:04;;;;;;;1.35;1.10;;;11.60;69.30;;;11.48;54.68;94863.78;5036245;28;20234;-79
2021/10/22 08:00:31;;;;;;;2.58;1.30;;;11.70;69.30;;;11.58;54.89;94871.28;5036397;28;20286;-79
2021/10/22 08:02:58;;;;;;;1.30;1.20;;;11.80;69.30;;;11.61;54.69;94874.31;5052647;28;20216;-79
2021/10/22 08:05:25;;;;;;;1.77;1.50;;;11.80;69.20;;;11.67;54.48;94891.09;5035950;28;20237;-79
2021/10/22 08:07:53;;;;;;;2.97;1.20;;;11.80;69.10;;;11.69;54.40;94883.81;5052780;28;20219;-78
2021/10/22 08:10:21;;;;;;;1.70;1.40;;;11.90;69.10;;;11.74;54.27;94877.97;5035923;28;20203;-79
2021/10/22 08:12:50;;;;;;;1.35;1.25;;;11.90;69.10;;;11.81;54.40;94881.41;5035795;28;20215;-79
2021/10/22 08:15:39;;;;;;;1.33;1.23;;;12.00;69.20;;;11.86;54.34;94871.09;5052462;28;20242;-79
2021/10/22 08:18:08;;;;;;;2.25;1.48;;;12.00;69.20;;;11.89;54.20;94870.72;5052355;28;20212;-79
2021/10/22 08:20:46;;;;;;;1.77;1.38;;;12.10;69.00;;;11.90;54.02;94864.47;5035820;28;20645;-80
2021/10/22 08:23:18;;;;;;;1.65;1.35;;;12.10;68.80;;;11.88;54.23;94876.16;5036259;28;20287;-79
2021/10/22 08:25:47;;;;;;;1.67;1.48;;;12.20;68.60;;;11.87;53.76;94885.06;5035564;28;20238;-79
2021/10/22 08:28:15;;;;;;;1.30;1.20;;;12.20;69.40;;;11.82;53.85;94896.19;5052394;28;20663;-79
2021/10/22 08:30:43;;;;;;;2.05;1.48;;;12.20;68.40;;;11.81;53.93;94900.59;5035786;28;20200;-79
2021/10/22 08:33:11;;;;;;;2.47;1.50;;;12.20;68.30;;;11.78;54.01;94908.09;5051955;28;20654;-79
2021/10/22 08:35:39;;;;;;;1.75;1.30;;;12.20;68.40;;;11.79;53.87;94913.16;5051988;28;20206;-79
2021/10/22 08:38:09;;;;;;;1.85;1.40;;;12.10;68.40;;;11.80;53.77;94912.16;5035351;28;20255;-79
2021/10/22 08:40:37;;;;;;;1.52;1.10;;;12.20;68.60;;;11.86;54.10;94905.28;5051839;28;20207;-79
2021/10/22 08:43:04;;;;;;;1.50;1.17;;;12.10;68.70;;;11.93;53.89;94911.34;5068412;28;20191;-79
2021/10/22 08:45:33;;;;;;;3.88;2.03;;;12.20;69.70;;;11.98;53.86;94906.31;5035470;28;20270;-79
2021/10/22 08:48:03;;;;;;;1.95;1.42;;;12.20;68.60;;;12.00;53.58;94899.06;5035248;28;20221;-79
2021/10/22 08:50:30;;;;;;;1.48;1.38;;;12.20;68.60;;;12.08;54.02;94903.31;5035398;28;20184;-78
2021/10/22 08:52:58;;;;;;;1.42;1.30;;;12.30;68.70;;;12.15;53.41;94905.94;5019025;28;20627;-79
2021/10/22 08:55:25;;;;;;;2.58;1.42;;;12.30;68.50;;;12.16;53.57;94913.63;5018844;28;20200;-79
2021/10/22 08:57:53;;;;;;;3.10;1.38;;;12.40;68.70;;;12.22;53.45;94917.28;5035134;28;20273;-79
2021/10/22 09:00:23;;;;;;;2.10;1.40;;;12.40;68.30;;;12.24;53.35;94910.00;5034933;28;20197;-79
2021/10/22 09:02:52;;;;;;;1.73;1.40;;;12.40;68.30;;;12.35;53.48;94913.03;5034840;28;20254;-79
2021/10/22 09:05:25;;;;;;;1.98;1.52;;;12.50;68.50;;;12.42;52.89;94917.28;5051380;28;20199;-79
2021/10/22 09:07:55;;;;;;;1.50;1.38;;;12.50;67.90;;;12.47;52.66;94909.59;5034974;28;20254;-79
2021/10/22 09:10:26;;;;;;;1.33;1.23;;;12.60;68.00;;;12.49;52.16;94904.94;5035193;28;20199;-79
2021/10/22 09:12:56;;;;;;;1.98;1.40;;;12.70;67.60;;;12.57;52.14;94926.78;5034810;28;20321;-79
2021/10/22 09:15:27;;;;;;;2.25;1.40;;;12.80;67.40;;;12.57;51.21;94921.50;5051325;28;20613;-79
2021/10/22 09:18:05;;;;;;;3.53;1.50;;;12.70;66.80;;;12.58;51.00;94921.31;5051096;28;20243;-78
2021/10/22 09:20:32;;;;;;;3.20;1.30;;;12.80;66.60;;;12.62;51.19;94912.00;5035476;28;20563;-78
2021/10/22 09:23:01;;;;;;;2.63;1.30;;;12.80;67.20;;;12.76;51.66;94912.00;5051197;28;20219;-80
2021/10/22 09:25:31;;;;;;;1.35;1.23;;;12.90;67.30;;;12.88;51.31;94915.59;5018246;28;20242;-79
2021/10/22 09:28:03;;;;;;;1.48;1.10;;;13.00;67.10;;;13.01;51.13;94920.03;5050979;28;20314;-82
2021/10/22 09:30:45;;;;;;;2.03;1.27;;;13.00;67.00;;;13.09;50.40;94914.53;5018326;28;20301;-78
2021/10/22 09:33:21;;;;;;;1.33;1.23;;;13.10;66.70;;;13.19;50.55;94908.03;5035306;28;20642;-79
2021/10/22 09:35:57;;;;;;;1.85;1.20;;;13.20;66.70;;;13.25;50.66;94912.47;5050871;28;20207;-80
2021/10/22 09:38:28;;;;;;;2.10;1.30;;;13.30;66.70;;;13.35;50.67;94904.91;5034497;28;20322;-80
2021/10/22 09:41:02;;;;;;;2.05;1.35;;;13.40;66.80;;;13.46;49.97;94906.13;5034697;28;20191;-79
2021/10/22 09:43:35;;;;;;;1.30;1.20;;;13.40;66.50;;;13.52;49.20;94894.72;5034914;28;20281;-79
2021/10/22 09:46:21;;;;;;;1.55;1.20;;;13.50;66.30;;;13.54;49.41;94895.34;5052263;28;20214;-79
2021/10/22 09:48:56;;;;;;;2.58;1.30;;;13.60;65.90;;;13.58;49.49;94912.34;5050982;28;20187;-80
2021/10/22 09:51:34;;;;;;;1.48;1.38;;;13.70;66.00;;;13.60;49.41;94912.16;5068313;28;20298;-78
2021/10/22 09:54:11;;;;;;;2.08;1.23;;;13.70;65.70;;;13.64;49.74;94920.44;5034782;28;20199;-79
2021/10/22 09:56:52;;;;;;;2.65;1.42;;;13.70;65.80;;;13.63;49.61;94918.81;5034456;28;20254;-80
2021/10/22 09:59:27;;;;;;;1.95;1.30;;;13.80;65.60;;;13.58;48.48;94927.34;5034309;28;20323;-79
2021/10/22 10:02:02;;;;;;;2.22;1.20;;;13.90;65.10;;;13.48;48.57;94925.16;5051255;28;20210;-79
2021/10/22 10:04:30;;;;;;;1.75;1.42;;;13.80;64.80;;;13.39;48.32;94918.50;5050879;28;20179;-79
2021/10/22 10:07:06;;;;;;;2.00;1.20;;;13.80;64.60;;;13.32;48.87;94913.25;5035068;28;20310;-79
2021/10/22 10:09:37;;;;;;;1.92;1.02;;;13.70;64.80;;;13.32;48.35;94913.25;5034233;28;20249;-79
2021/10/22 10:12:05;;;;;;;1.25;1.10;;;13.70;64.80;;;13.34;48.57;94918.28;5036123;28;20681;-80
2021/10/22 10:14:33;;;;;;;1.38;1.20;;;13.70;64.80;;;13.34;48.96;94921.75;5038284;28;20279;-79
2021/10/22 10:17:04;;;;;;;2.60;1.13;;;13.70;65.00;;;13.38;49.11;94922.97;5037540;28;20740;-79
2021/10/22 10:19:37;;;;;;;1.42;1.25;;;13.60;65.20;;;13.45;49.48;94922.94;5037230;28;20207;-79
2021/10/22 10:22:09;;;;;;;1.65;1.10;;;13.70;65.40;;;13.47;48.63;94913.00;5037747;28;20284;-79
2021/10/22 10:24:49;;;;;;;1.50;1.30;;;13.70;65.10;;;13.45;48.34;94913.22;5071140;28;20188;-78
2021/10/22 10:27:23;;;;;;;1.45;1.35;;;13.70;64.90;;;13.50;48.87;94902.06;5034829;28;20250;-79
2021/10/22 10:30:00;;;;;;;2.33;1.20;;;13.80;65.20;;;13.56;48.66;94908.28;5018788;28;20291;-79
2021/10/22 10:32:31;;;;;;;1.23;1.13;;;13.70;64.70;;;13.70;49.01;94895.88;5019006;28;20246;-79